createdAt,value
2018-05-24T00:00:43.992Z,7.22
2018-05-24T00:01:48.364Z,7.90
2018-05-24T00:02:53.426Z,7.22
2018-05-24T00:03:57.785Z,7.78
2018-05-24T00:05:02.132Z,7.72
2018-05-24T00:06:06.811Z,8.80
2018-05-24T00:07:11.620Z,7.78
2018-05-24T00:08:15.930Z,6.87
2018-05-24T00:09:20.921Z,9.13
2018-05-24T00:10:25.133Z,9.32
2018-05-24T00:11:29.359Z,9.95
2018-05-24T00:12:34.042Z,8.35
2018-05-24T00:13:38.270Z,7.28
2018-05-24T00:14:42.352Z,7.22
2018-05-24T00:15:46.377Z,12.70
2018-05-24T00:16:50.566Z,8.13
2018-05-24T00:17:54.591Z,6.30
2018-05-24T00:18:58.669Z,8.38
2018-05-24T00:20:02.719Z,7.18
2018-05-24T00:21:07.666Z,7.85
2018-05-24T00:22:11.725Z,7.53
2018-05-24T00:23:15.794Z,9.32
2018-05-24T00:24:19.879Z,7.10
2018-05-24T00:25:24.731Z,7.80
2018-05-24T00:26:28.830Z,8.68
2018-05-24T00:27:32.958Z,10.02
2018-05-24T00:28:37.077Z,6.62
2018-05-24T00:29:41.979Z,7.32
2018-05-24T00:30:46.215Z,8.18
2018-05-24T00:31:51.209Z,8.05
2018-05-24T00:32:55.413Z,14.87
2018-05-24T00:33:59.670Z,7.20
2018-05-24T00:35:04.030Z,7.07
2018-05-24T00:36:09.303Z,8.40
2018-05-24T00:37:13.518Z,6.97
2018-05-24T00:38:17.757Z,7.40
2018-05-24T00:39:21.862Z,8.10
2018-05-24T00:40:26.090Z,7.22
2018-05-24T00:41:30.917Z,8.18
2018-05-24T00:42:36.048Z,8.02
2018-05-24T00:43:40.228Z,7.75
2018-05-24T00:44:44.460Z,6.18
2018-05-24T00:45:48.596Z,6.80
2018-05-24T00:46:52.735Z,8.25
2018-05-24T00:47:56.802Z,6.65
2018-05-24T00:49:01.278Z,6.70
2018-05-24T00:50:05.390Z,8.95
2018-05-24T00:51:09.448Z,7.22
2018-05-24T00:52:13.548Z,6.65
2018-05-24T00:53:17.570Z,9.82
2018-05-24T00:54:22.658Z,7.53
2018-05-24T00:55:45.203Z,6.50
2018-05-24T00:56:49.243Z,8.13
2018-05-24T00:57:53.386Z,7.25
2018-05-24T00:58:57.477Z,6.85
2018-05-24T01:00:01.535Z,7.05
2018-05-24T01:01:05.914Z,6.87
2018-05-24T01:02:10.132Z,15.35
2018-05-24T01:03:14.364Z,6.78
2018-05-24T01:04:19.302Z,9.73
2018-05-24T01:05:23.570Z,7.57
2018-05-24T01:06:27.761Z,7.05
2018-05-24T01:07:31.984Z,7.90
2018-05-24T01:08:36.199Z,6.97
2018-05-24T01:09:41.187Z,8.27
2018-05-24T01:10:45.383Z,6.95
2018-05-24T01:11:49.575Z,7.45
2018-05-24T01:12:54.040Z,7.32
2018-05-24T01:13:58.235Z,8.48
2018-05-24T01:15:02.430Z,7.07
2018-05-24T01:16:06.646Z,6.47
2018-05-24T01:17:10.874Z,7.95
2018-05-24T01:18:15.144Z,6.03
2018-05-24T01:19:19.673Z,6.80
2018-05-24T01:20:23.727Z,6.50
2018-05-24T01:21:27.795Z,8.52
2018-05-24T01:22:32.622Z,7.37
2018-05-24T01:23:36.666Z,7.05
2018-05-24T01:24:40.727Z,6.22
2018-05-24T01:25:45.182Z,7.12
2018-05-24T01:26:49.286Z,10.27
2018-05-24T01:27:53.340Z,7.03
2018-05-24T01:28:57.354Z,8.40
2018-05-24T01:30:01.394Z,7.45
2018-05-24T01:31:05.447Z,8.48
2018-05-24T01:32:09.511Z,6.80
2018-05-24T01:33:13.627Z,8.07
2018-05-24T01:34:18.442Z,6.85
2018-05-24T01:35:23.274Z,6.30
2018-05-24T01:36:36.934Z,5.70
2018-05-24T01:37:50.730Z,6.90
2018-05-24T01:38:55.747Z,8.15
2018-05-24T01:40:00.694Z,7.03
2018-05-24T01:41:04.936Z,6.72
2018-05-24T01:42:09.165Z,6.95
2018-05-24T01:43:13.382Z,8.43
2018-05-24T01:44:17.633Z,7.72
2018-05-24T01:45:21.849Z,6.32
2018-05-24T01:46:26.071Z,6.65
2018-05-24T01:47:30.280Z,7.47
2018-05-24T01:48:34.486Z,8.02
2018-05-24T01:49:38.720Z,5.53
2018-05-24T01:50:43.814Z,8.55
2018-05-24T01:51:47.879Z,9.68
2018-05-24T01:52:51.926Z,6.28
2018-05-24T01:53:55.979Z,7.70
2018-05-24T01:55:00.046Z,6.45
2018-05-24T01:56:04.902Z,7.45
2018-05-24T01:57:09.493Z,7.40
2018-05-24T01:58:14.487Z,7.03
2018-05-24T01:59:18.687Z,7.65
2018-05-24T02:00:22.923Z,6.78
2018-05-24T02:01:27.918Z,6.53
2018-05-24T02:02:32.229Z,7.75
2018-05-24T02:03:36.758Z,8.05
2018-05-24T02:04:41.822Z,6.75
2018-05-24T02:05:46.731Z,6.40
2018-05-24T02:06:50.802Z,7.68
2018-05-24T02:07:54.866Z,6.72
2018-05-24T02:08:59.250Z,6.90
2018-05-24T02:10:03.318Z,8.32
2018-05-24T02:11:08.160Z,6.22
2018-05-24T02:12:12.264Z,6.90
2018-05-24T02:13:16.311Z,6.28
2018-05-24T02:14:20.372Z,6.95
2018-05-24T02:15:24.845Z,7.85
2018-05-24T02:16:28.918Z,9.23
2018-05-24T02:17:32.946Z,8.63
2018-05-24T02:18:37.003Z,6.00
2018-05-24T02:19:41.050Z,7.47
2018-05-24T02:20:45.102Z,6.25
2018-05-24T02:21:49.434Z,6.90
2018-05-24T02:22:53.502Z,8.05
2018-05-24T02:23:57.585Z,8.60
2018-05-24T02:25:02.465Z,9.80
2018-05-24T02:26:06.283Z,6.75
2018-05-24T02:27:11.563Z,6.43
2018-05-24T02:28:15.844Z,6.10
2018-05-24T02:29:20.062Z,8.60
2018-05-24T02:30:24.287Z,7.62
2018-05-24T02:31:28.863Z,6.87
2018-05-24T02:32:33.819Z,7.22
2018-05-24T02:33:38.302Z,6.25
2018-05-24T02:34:42.564Z,5.35
2018-05-24T02:35:46.843Z,8.15
2018-05-24T02:36:51.419Z,7.62
2018-05-24T02:37:56.379Z,7.68
2018-05-24T02:39:01.354Z,7.03
2018-05-24T02:40:06.595Z,6.68
2018-05-24T02:41:11.583Z,7.50
2018-05-24T02:42:15.799Z,5.87
2018-05-24T02:43:20.062Z,6.72
2018-05-24T02:44:24.262Z,8.40
2018-05-24T02:45:28.567Z,6.10
2018-05-24T02:46:32.631Z,5.78
2018-05-24T02:47:37.426Z,8.25
2018-05-24T02:48:41.519Z,8.13
2018-05-24T02:49:45.902Z,7.30
2018-05-24T02:52:48.051Z,6.53
2018-05-24T02:53:52.106Z,7.03
2018-05-24T02:54:56.174Z,6.07
2018-05-24T02:56:00.256Z,7.93
2018-05-24T02:57:04.355Z,5.60
2018-05-24T02:58:08.363Z,6.22
2018-05-24T02:59:12.763Z,8.23
2018-05-24T03:00:16.818Z,6.50
2018-05-24T03:01:20.916Z,6.78
2018-05-24T03:02:25.004Z,7.03
2018-05-24T03:03:29.183Z,8.18
2018-05-24T03:04:33.262Z,5.97
2018-05-24T03:05:38.755Z,5.47
2018-05-24T03:06:43.062Z,6.32
2018-05-24T03:07:47.159Z,5.93
2018-05-24T03:08:51.235Z,5.47
2018-05-24T03:09:55.272Z,5.93
2018-05-24T03:10:59.360Z,6.40
2018-05-24T03:12:04.288Z,10.25
2018-05-24T03:13:08.698Z,5.75
2018-05-24T03:14:14.168Z,6.37
2018-05-24T03:15:19.159Z,5.65
2018-05-24T03:16:23.377Z,9.20
2018-05-24T03:17:27.687Z,6.05
2018-05-24T03:18:31.945Z,5.22
2018-05-24T03:19:37.019Z,5.40
2018-05-24T03:20:42.062Z,6.90
2018-05-24T03:21:46.599Z,5.95
2018-05-24T03:22:50.947Z,5.90
2018-05-24T03:23:55.187Z,5.80
2018-05-24T03:25:00.235Z,5.72
2018-05-24T03:26:04.460Z,5.72
2018-05-24T03:27:08.709Z,5.93
2018-05-24T03:28:12.915Z,5.80
2018-05-24T03:29:17.168Z,6.10
2018-05-24T03:30:21.374Z,7.05
2018-05-24T03:31:25.614Z,6.87
2018-05-24T03:32:29.830Z,5.65
2018-05-24T03:33:33.927Z,8.02
2018-05-24T03:34:38.258Z,9.20
2018-05-24T03:35:43.076Z,8.73
2018-05-24T03:36:47.894Z,8.85
2018-05-24T03:37:52.759Z,7.57
2018-05-24T03:38:56.811Z,5.80
2018-05-24T03:40:01.949Z,7.45
2018-05-24T03:41:06.800Z,8.60
2018-05-24T03:42:10.919Z,7.95
2018-05-24T03:43:14.986Z,5.90
2018-05-24T03:44:19.041Z,7.35
2018-05-24T03:45:23.071Z,6.43
2018-05-24T03:46:32.231Z,5.50
2018-05-24T03:47:36.335Z,8.60
2018-05-24T03:48:40.491Z,6.25
2018-05-24T03:49:44.743Z,6.07
2018-05-24T03:50:48.941Z,5.60
2018-05-24T03:51:53.164Z,5.90
2018-05-24T03:52:57.401Z,11.45
2018-05-24T03:54:01.587Z,5.12
2018-05-24T03:55:05.774Z,8.05
2018-05-24T03:56:10.000Z,6.07
2018-05-24T03:57:14.530Z,6.90
2018-05-24T03:58:19.498Z,6.15
2018-05-24T03:59:31.503Z,6.10
2018-05-24T04:00:46.615Z,6.60
2018-05-24T04:04:06.227Z,5.03
2018-05-24T04:05:10.304Z,6.45
2018-05-24T04:06:15.122Z,5.25
2018-05-24T04:07:19.923Z,5.80
2018-05-24T04:08:23.979Z,6.60
2018-05-24T04:09:28.192Z,4.72
2018-05-24T04:10:32.446Z,8.45
2018-05-24T04:11:37.430Z,7.18
2018-05-24T04:12:41.647Z,6.30
2018-05-24T04:13:45.943Z,6.43
2018-05-24T04:14:50.263Z,6.00
2018-05-24T04:15:54.563Z,6.90
2018-05-24T04:16:59.071Z,5.53
2018-05-24T04:18:03.306Z,6.97
2018-05-24T04:19:07.604Z,5.35
2018-05-24T04:20:11.823Z,8.20
2018-05-24T04:21:16.028Z,5.65
2018-05-24T04:22:21.330Z,8.00
2018-05-24T04:23:25.527Z,5.00
2018-05-24T04:24:29.732Z,6.70
2018-05-24T04:25:33.987Z,6.95
2018-05-24T04:26:38.972Z,6.15
2018-05-24T04:27:43.179Z,6.72
2018-05-24T04:28:47.383Z,7.25
2018-05-24T04:29:51.587Z,6.95
2018-05-24T04:30:56.155Z,7.07
2018-05-24T04:32:00.436Z,6.47
2018-05-24T04:33:05.429Z,6.10
2018-05-24T04:34:10.486Z,7.25
2018-05-24T04:35:15.727Z,5.12
2018-05-24T04:36:20.766Z,7.07
2018-05-24T04:37:24.938Z,6.37
2018-05-24T04:38:29.765Z,7.57
2018-05-24T04:39:34.707Z,5.40
2018-05-24T04:40:39.051Z,6.70
2018-05-24T04:41:43.119Z,8.50
2018-05-24T04:42:47.165Z,4.95
2018-05-24T04:43:51.215Z,8.68
2018-05-24T04:44:55.310Z,6.40
2018-05-24T04:46:00.128Z,5.30
2018-05-24T04:47:05.136Z,7.87
2018-05-24T04:48:10.147Z,5.93
2018-05-24T04:49:14.290Z,7.12
2018-05-24T04:50:18.393Z,5.43
2018-05-24T04:51:22.481Z,5.65
2018-05-24T04:52:27.306Z,7.55
2018-05-24T04:53:31.377Z,6.55
2018-05-24T04:54:35.431Z,7.28
2018-05-24T04:55:39.490Z,5.93
2018-05-24T04:56:43.514Z,8.25
2018-05-24T04:57:47.862Z,6.37
2018-05-24T04:58:51.990Z,5.97
2018-05-24T04:59:56.235Z,6.20
2018-05-24T05:01:00.459Z,5.47
2018-05-24T05:02:04.708Z,7.40
2018-05-24T05:03:08.927Z,7.03
2018-05-24T05:04:14.194Z,7.90
2018-05-24T05:05:18.483Z,6.45
2018-05-24T05:06:22.663Z,5.57
2018-05-24T05:07:26.851Z,7.05
2018-05-24T05:08:31.067Z,5.55
2018-05-24T05:10:37.607Z,5.93
2018-05-24T05:11:41.822Z,8.65
2018-05-24T05:15:56.771Z,6.47
2018-05-24T05:17:01.075Z,6.45
2018-05-24T05:18:05.319Z,6.68
2018-05-24T05:19:09.614Z,6.70
2018-05-24T05:20:13.833Z,7.53
2018-05-24T05:21:18.035Z,7.28
2018-05-24T05:22:22.539Z,7.87
2018-05-24T05:23:26.840Z,5.70
2018-05-24T05:24:31.069Z,7.95
2018-05-24T05:25:35.275Z,7.28
2018-05-24T05:26:39.541Z,6.00
2018-05-24T05:27:43.843Z,4.70
2018-05-24T05:28:48.050Z,7.40
2018-05-24T05:29:52.328Z,4.80
2018-05-24T05:30:56.620Z,5.30
2018-05-24T05:32:01.677Z,5.70
2018-05-24T05:33:05.899Z,5.10
2018-05-24T05:34:10.411Z,6.47
2018-05-24T05:35:14.650Z,7.70
2018-05-24T05:36:19.622Z,6.45
2018-05-24T05:37:23.843Z,5.20
2018-05-24T05:38:28.042Z,6.00
2018-05-24T05:39:32.243Z,6.78
2018-05-24T05:40:36.470Z,5.75
2018-05-24T05:41:40.711Z,5.50
2018-05-24T05:42:45.682Z,7.85
2018-05-24T05:43:49.892Z,7.45
2018-05-24T05:44:54.152Z,6.30
2018-05-24T05:45:58.699Z,5.72
2018-05-24T05:47:02.927Z,5.53
2018-05-24T05:48:07.136Z,8.13
2018-05-24T05:49:11.306Z,5.57
2018-05-24T05:50:15.518Z,6.07
2018-05-24T05:51:19.792Z,7.20
2018-05-24T05:52:25.043Z,6.75
2018-05-24T05:53:29.275Z,5.93
2018-05-24T05:54:33.603Z,5.30
2018-05-24T05:55:37.789Z,8.52
2018-05-24T05:56:42.090Z,6.35
2018-05-24T05:57:46.283Z,5.20
2018-05-24T05:58:50.783Z,7.15
2018-05-24T05:59:55.784Z,5.65
2018-05-24T06:01:00.953Z,5.03
2018-05-24T06:02:05.047Z,6.78
2018-05-24T06:03:09.109Z,5.32
2018-05-24T06:04:14.203Z,5.87
2018-05-24T06:05:18.249Z,6.03
2018-05-24T06:06:22.316Z,7.00
2018-05-24T06:07:26.586Z,6.30
2018-05-24T06:08:30.666Z,6.37
2018-05-24T06:09:34.719Z,7.15
2018-05-24T06:10:39.092Z,6.00
2018-05-24T06:11:43.150Z,8.27
2018-05-24T06:12:47.219Z,12.25
2018-05-24T06:13:51.372Z,7.30
2018-05-24T06:14:56.251Z,6.20
2018-05-24T06:16:00.324Z,7.62
2018-05-24T06:17:04.771Z,5.95
2018-05-24T06:18:08.871Z,9.40
2018-05-24T06:19:12.939Z,6.45
2018-05-24T06:20:16.988Z,6.03
2018-05-24T06:21:21.043Z,7.37
2018-05-24T06:22:25.390Z,6.15
2018-05-24T06:23:29.430Z,8.20
2018-05-24T06:24:34.257Z,7.25
2018-05-24T06:25:38.350Z,5.70
2018-05-24T06:26:42.411Z,8.02
2018-05-24T06:27:46.464Z,6.47
2018-05-24T06:28:50.843Z,5.97
2018-05-24T06:29:55.732Z,7.10
2018-05-24T06:30:59.779Z,5.18
2018-05-24T06:32:04.678Z,7.10
2018-05-24T06:33:09.474Z,5.53
2018-05-24T06:34:13.595Z,6.45
2018-05-24T06:35:17.994Z,6.50
2018-05-24T06:36:22.059Z,6.10
2018-05-24T06:37:26.110Z,4.85
2018-05-24T06:38:30.191Z,7.90
2018-05-24T06:39:34.259Z,5.70
2018-05-24T06:40:38.669Z,5.40
2018-05-24T06:41:43.667Z,5.97
2018-05-24T06:42:48.667Z,6.72
2018-05-24T06:43:52.902Z,7.40
2018-05-24T06:44:57.208Z,8.35
2018-05-24T06:46:01.510Z,6.20
2018-05-24T06:47:06.032Z,6.05
2018-05-24T06:48:10.288Z,5.65
2018-05-24T06:49:14.503Z,9.50
2018-05-24T06:50:18.834Z,10.18
2018-05-24T06:51:23.876Z,5.30
2018-05-24T06:52:28.171Z,6.87
2018-05-24T06:53:33.023Z,7.65
2018-05-24T06:54:37.857Z,10.77
2018-05-24T06:55:42.711Z,6.53
2018-05-24T06:56:46.833Z,6.25
2018-05-24T06:57:51.654Z,6.15
2018-05-24T06:58:55.998Z,6.10
2018-05-24T07:00:00.252Z,8.45
2018-05-24T07:01:04.436Z,5.95
2018-05-24T07:02:08.525Z,6.00
2018-05-24T07:03:12.743Z,6.40
2018-05-24T07:04:16.973Z,6.12
2018-05-24T07:05:22.262Z,5.43
2018-05-24T07:06:26.485Z,6.37
2018-05-24T07:07:30.626Z,5.40
2018-05-24T07:08:34.679Z,7.47
2018-05-24T07:09:38.816Z,8.07
2018-05-24T07:10:43.788Z,8.15
2018-05-24T07:11:47.965Z,9.07
2018-05-24T07:12:52.030Z,7.32
2018-05-24T07:13:56.091Z,6.65
2018-05-24T07:15:00.914Z,7.18
2018-05-24T07:16:05.043Z,9.20
2018-05-24T07:17:09.382Z,5.93
2018-05-24T07:18:14.249Z,6.12
2018-05-24T07:19:18.363Z,5.00
2018-05-24T07:20:22.531Z,5.72
2018-05-24T07:21:26.729Z,6.53
2018-05-24T07:22:31.024Z,7.72
2018-05-24T07:23:36.332Z,5.95
2018-05-24T07:24:40.620Z,5.95
2018-05-24T07:25:44.783Z,6.62
2018-05-24T07:26:48.858Z,6.15
2018-05-24T07:27:53.679Z,5.55
2018-05-24T07:28:58.491Z,9.63
2018-05-24T07:30:03.493Z,6.87
2018-05-24T07:31:07.719Z,6.37
2018-05-24T07:32:11.918Z,5.97
2018-05-24T07:33:16.227Z,7.45
2018-05-24T07:34:21.520Z,6.35
2018-05-24T07:35:25.718Z,8.70
2018-05-24T07:36:30.015Z,7.43
2018-05-24T07:37:34.324Z,7.70
2018-05-24T07:38:38.563Z,5.90
2018-05-24T07:39:42.832Z,6.60
2018-05-24T07:40:47.147Z,5.93
2018-05-24T07:41:51.387Z,5.07
2018-05-24T07:42:55.690Z,5.37
2018-05-24T07:44:00.017Z,7.30
2018-05-24T07:45:05.053Z,7.82
2018-05-24T07:46:09.323Z,5.55
2018-05-24T07:47:13.558Z,8.43
2018-05-24T07:48:18.588Z,5.60
2018-05-24T07:49:23.708Z,7.12
2018-05-24T07:50:28.729Z,6.75
2018-05-24T07:51:33.075Z,5.50
2018-05-24T07:52:37.127Z,5.40
2018-05-24T07:53:41.191Z,5.95
2018-05-24T07:54:45.299Z,5.70
2018-05-24T07:55:49.382Z,6.85
2018-05-24T07:56:53.423Z,10.57
2018-05-24T07:57:57.779Z,5.93
2018-05-24T07:59:01.870Z,6.28
2018-05-24T08:00:06.728Z,7.05
2018-05-24T08:01:10.820Z,5.40
2018-05-24T08:02:14.906Z,6.00
2018-05-24T08:03:19.251Z,7.35
2018-05-24T08:04:23.315Z,7.37
2018-05-24T08:05:27.415Z,10.57
2018-05-24T08:06:31.479Z,8.85
2018-05-24T08:07:35.620Z,7.32
2018-05-24T08:08:39.688Z,6.05
2018-05-24T08:09:44.011Z,6.65
2018-05-24T08:10:48.992Z,8.07
2018-05-24T08:11:53.190Z,5.43
2018-05-24T08:12:57.438Z,5.05
2018-05-24T08:14:01.634Z,7.68
2018-05-24T08:15:06.654Z,6.40
2018-05-24T08:16:11.214Z,8.13
2018-05-24T08:17:15.474Z,6.43
2018-05-24T08:18:19.768Z,5.65
2018-05-24T08:19:23.963Z,6.12
2018-05-24T08:20:28.255Z,10.35
2018-05-24T08:21:32.488Z,6.82
2018-05-24T08:22:36.817Z,6.60
2018-05-24T08:23:41.107Z,8.07
2018-05-24T08:24:45.357Z,6.00
2018-05-24T08:25:49.585Z,5.97
2018-05-24T08:26:53.806Z,5.80
2018-05-24T08:27:58.027Z,6.07
2018-05-24T08:29:02.366Z,9.57
2018-05-24T08:30:07.291Z,6.28
2018-05-24T08:31:12.112Z,8.27
2018-05-24T08:32:16.913Z,5.53
2018-05-24T08:33:20.975Z,5.32
2018-05-24T08:34:25.312Z,6.03
2018-05-24T08:35:29.427Z,6.72
2018-05-24T08:36:33.882Z,6.87
2018-05-24T08:37:38.351Z,7.82
2018-05-24T08:38:43.480Z,5.37
2018-05-24T08:39:48.542Z,5.65
2018-05-24T08:40:53.401Z,5.90
2018-05-24T08:41:57.491Z,5.45
2018-05-24T08:43:01.550Z,7.45
2018-05-24T08:44:05.667Z,7.50
2018-05-24T08:45:09.766Z,5.40
2018-05-24T08:46:14.082Z,6.20
2018-05-24T08:47:18.920Z,7.07
2018-05-24T08:48:23.074Z,6.72
2018-05-24T08:49:27.904Z,5.68
2018-05-24T08:50:31.993Z,7.05
2018-05-24T08:51:36.051Z,8.13
2018-05-24T08:52:40.171Z,7.50
2018-05-24T08:53:44.287Z,6.87
2018-05-24T08:54:48.368Z,8.57
2018-05-24T08:55:52.538Z,5.90
2018-05-24T08:56:57.511Z,7.07
2018-05-24T08:58:01.879Z,8.32
2018-05-24T08:59:05.935Z,7.05
2018-05-24T09:00:10.789Z,6.62
2018-05-24T09:01:14.941Z,9.55
2018-05-24T09:02:18.971Z,5.90
2018-05-24T09:03:23.855Z,6.80
2018-05-24T09:08:21.954Z,5.90
2018-05-24T09:09:27.481Z,7.37
2018-05-24T09:10:32.230Z,11.82
2018-05-24T09:11:36.915Z,7.15
2018-05-24T09:12:43.387Z,9.63
2018-05-24T09:13:48.908Z,7.75
2018-05-24T09:14:54.053Z,5.60
2018-05-24T09:16:02.762Z,6.78
2018-05-24T09:17:08.315Z,8.73
2018-05-24T09:18:13.524Z,6.90
2018-05-24T09:19:18.503Z,7.68
2018-05-24T09:20:23.307Z,8.50
2018-05-24T09:21:28.239Z,5.62
2018-05-24T09:22:32.957Z,7.07
2018-05-24T09:23:37.662Z,7.75
2018-05-24T09:24:42.388Z,7.05
2018-05-24T09:25:47.939Z,8.20
2018-05-24T09:26:52.639Z,7.22
2018-05-24T09:27:57.377Z,8.52
2018-05-24T09:29:02.043Z,7.03
2018-05-24T09:30:06.835Z,6.85
2018-05-24T09:31:12.288Z,7.85
2018-05-24T09:32:17.802Z,7.40
2018-05-24T09:33:22.466Z,6.87
2018-05-24T09:34:27.176Z,6.43
2018-05-24T09:35:31.914Z,8.30
2018-05-24T09:36:36.738Z,10.63
2018-05-24T09:37:41.496Z,8.38
2018-05-24T09:38:46.965Z,6.87
2018-05-24T09:39:52.790Z,6.80
2018-05-24T09:40:57.461Z,8.90
2018-05-24T09:42:02.937Z,6.47
2018-05-24T09:43:08.612Z,12.82
2018-05-24T09:44:13.638Z,6.43
2018-05-24T09:45:19.111Z,7.03
2018-05-24T09:46:23.835Z,6.22
2018-05-24T09:47:28.539Z,7.37
2018-05-24T09:48:33.235Z,8.13
2018-05-24T09:49:38.923Z,10.02
2018-05-24T09:50:45.198Z,7.90
2018-05-24T09:51:49.931Z,8.82
2018-05-24T09:52:54.724Z,7.40
2018-05-24T09:54:00.085Z,14.35
2018-05-24T09:55:04.830Z,12.75
2018-05-24T09:56:10.078Z,9.65
2018-05-24T09:57:15.678Z,9.27
2018-05-24T09:58:21.306Z,16.92
2018-05-24T09:59:28.116Z,13.73
2018-05-24T10:00:34.658Z,10.25
2018-05-24T10:01:47.291Z,9.82
2018-05-24T10:02:53.480Z,20.40
2018-05-24T10:04:00.118Z,10.48
2018-05-24T10:05:06.777Z,16.02
2018-05-24T10:06:14.251Z,11.15
2018-05-24T10:07:22.216Z,12.23
2018-05-24T10:08:27.948Z,8.95
2018-05-24T10:09:33.606Z,15.32
2018-05-24T10:10:41.958Z,12.00
2018-05-24T10:11:48.617Z,11.38
2018-05-24T10:12:55.470Z,16.02
2018-05-24T10:14:09.833Z,10.55
2018-05-24T10:15:16.889Z,28.83
2018-05-24T10:16:24.153Z,17.15
2018-05-24T10:17:30.116Z,13.30
2018-05-24T10:18:35.964Z,14.75
2018-05-24T10:19:42.000Z,13.23
2018-05-24T10:20:47.788Z,15.02
2018-05-24T10:21:54.149Z,13.80
2018-05-24T10:22:59.288Z,10.40
2018-05-24T10:24:05.474Z,21.35
2018-05-24T10:25:11.698Z,14.23
2018-05-24T10:26:24.860Z,13.25
2018-05-24T10:27:32.518Z,18.00
2018-05-24T10:28:39.257Z,14.27
2018-05-24T10:29:45.090Z,11.23
2018-05-24T10:30:51.518Z,14.52
2018-05-24T10:31:56.442Z,22.42
2018-05-24T10:33:01.265Z,16.67
2018-05-24T10:34:06.829Z,10.48
2018-05-24T10:35:11.778Z,9.13
2018-05-24T10:36:17.004Z,15.95
2018-05-24T10:37:22.563Z,21.17
2018-05-24T10:38:27.379Z,10.27
2018-05-24T10:39:32.248Z,12.07
2018-05-24T10:40:37.433Z,17.52
2018-05-24T10:41:42.334Z,13.85
2018-05-24T10:42:48.263Z,13.73
2018-05-24T10:43:54.056Z,17.75
2018-05-24T10:44:58.782Z,9.25
2018-05-24T10:46:03.918Z,15.05
2018-05-24T10:47:11.739Z,11.57
2018-05-24T10:48:17.562Z,12.95
2018-05-24T10:49:22.348Z,12.00
2018-05-24T10:50:27.052Z,16.17
2018-05-24T10:51:31.781Z,14.87
2018-05-24T10:52:36.551Z,14.70
2018-05-24T10:53:41.278Z,15.02
2018-05-24T10:54:46.737Z,14.48
2018-05-24T10:55:51.679Z,15.23
2018-05-24T10:56:56.946Z,12.10
2018-05-24T10:58:02.458Z,17.98
2018-05-24T10:59:07.127Z,22.85
2018-05-24T11:00:12.671Z,10.00
2018-05-24T11:01:17.423Z,19.80
2018-05-24T11:02:22.119Z,12.80
2018-05-24T11:03:26.948Z,9.70
2018-05-24T11:04:31.620Z,11.75
2018-05-24T11:05:36.306Z,16.85
2018-05-24T11:06:41.286Z,10.32
2018-05-24T11:07:46.009Z,15.90
2018-05-24T11:08:51.377Z,11.48
2018-05-24T11:09:56.078Z,14.02
2018-05-24T11:11:00.850Z,14.87
2018-05-24T11:12:06.401Z,13.05
2018-05-24T11:13:11.092Z,9.48
2018-05-24T11:14:15.962Z,15.82
2018-05-24T11:15:20.808Z,14.85
2018-05-24T11:16:25.498Z,9.85
2018-05-24T11:17:30.200Z,11.32
2018-05-24T11:18:34.922Z,12.82
2018-05-24T11:19:39.617Z,16.37
2018-05-24T11:20:45.078Z,10.82
2018-05-24T11:21:49.730Z,14.27
2018-05-24T11:22:55.205Z,13.80
2018-05-24T11:24:00.441Z,8.57
2018-05-24T11:25:05.211Z,13.55
2018-05-24T11:26:11.265Z,10.65
2018-05-24T11:27:16.085Z,13.62
2018-05-24T11:28:20.907Z,10.15
2018-05-24T11:29:25.876Z,12.10
2018-05-24T11:30:30.567Z,21.20
2018-05-24T11:31:36.035Z,11.00
2018-05-24T11:32:40.875Z,10.57
2018-05-24T11:33:45.676Z,12.68
2018-05-24T11:34:50.505Z,10.93
2018-05-24T11:35:55.326Z,9.60
2018-05-24T11:37:00.480Z,16.55
2018-05-24T11:38:05.246Z,12.40
2018-05-24T11:39:10.862Z,8.20
2018-05-24T11:40:16.428Z,15.32
2018-05-24T11:41:21.162Z,12.80
2018-05-24T11:42:32.831Z,13.18
2018-05-24T11:43:37.882Z,15.18
2018-05-24T11:44:43.359Z,8.93
2018-05-24T11:45:48.924Z,10.35
2018-05-24T11:46:53.856Z,9.30
2018-05-24T11:47:59.367Z,10.68
2018-05-24T11:49:04.494Z,10.15
2018-05-24T11:50:09.234Z,10.70
2018-05-24T11:51:14.146Z,12.00
2018-05-24T11:52:19.099Z,9.43
2018-05-24T11:53:24.459Z,10.40
2018-05-24T11:54:30.000Z,8.55
2018-05-24T11:55:35.427Z,10.57
2018-05-24T11:56:40.149Z,9.38
2018-05-24T11:57:45.659Z,9.52
2018-05-24T11:58:50.564Z,14.98
2018-05-24T11:59:55.353Z,9.90
2018-05-24T12:01:00.058Z,10.02
2018-05-24T12:02:04.747Z,16.25
2018-05-24T12:03:10.213Z,10.43
2018-05-24T12:04:15.416Z,10.32
2018-05-24T12:05:20.899Z,10.88
2018-05-24T12:06:25.570Z,11.55
2018-05-24T12:07:31.303Z,9.70
2018-05-24T12:08:36.795Z,8.70
2018-05-24T12:09:42.109Z,11.40
2018-05-24T12:10:46.874Z,9.73
2018-05-24T12:11:51.663Z,9.07
2018-05-24T12:12:56.370Z,11.27
2018-05-24T12:14:01.418Z,10.18
2018-05-24T12:15:06.211Z,11.23
2018-05-24T12:16:11.720Z,13.85
2018-05-24T12:17:17.173Z,8.77
2018-05-24T12:18:21.916Z,10.90
2018-05-24T12:19:26.596Z,9.45
2018-05-24T12:20:31.486Z,12.57
2018-05-24T12:21:36.182Z,9.65
2018-05-24T12:22:40.876Z,9.35
2018-05-24T12:23:45.761Z,10.75
2018-05-24T12:24:51.448Z,8.88
2018-05-24T12:25:56.208Z,12.32
2018-05-24T12:27:01.777Z,9.07
2018-05-24T12:28:06.501Z,11.75
2018-05-24T12:29:11.549Z,9.57
2018-05-24T12:30:16.422Z,9.27
2018-05-24T12:31:21.582Z,12.50
2018-05-24T12:32:26.302Z,10.10
2018-05-24T12:33:31.158Z,7.57
2018-05-24T12:34:36.862Z,10.05
2018-05-24T12:35:41.619Z,14.25
2018-05-24T12:36:47.107Z,9.77
2018-05-24T12:37:52.231Z,13.35
2018-05-24T12:38:57.146Z,11.18
2018-05-24T12:40:02.141Z,9.00
2018-05-24T12:41:07.587Z,11.18
2018-05-24T12:42:12.364Z,10.95
2018-05-24T12:43:17.147Z,8.85
2018-05-24T12:44:22.164Z,11.65
2018-05-24T12:45:26.911Z,8.68
2018-05-24T12:46:31.668Z,11.77
2018-05-24T12:47:37.253Z,9.55
2018-05-24T12:48:41.967Z,12.95
2018-05-24T12:49:46.656Z,10.18
2018-05-24T12:50:51.418Z,9.55
2018-05-24T12:51:56.195Z,9.70
2018-05-24T12:53:01.197Z,12.85
2018-05-24T12:54:06.398Z,11.27
2018-05-24T12:55:11.113Z,9.27
2018-05-24T12:56:15.835Z,12.40
2018-05-24T12:57:20.645Z,11.25
2018-05-24T12:58:25.474Z,11.95
2018-05-24T12:59:30.395Z,10.48
2018-05-24T13:00:35.422Z,10.57
2018-05-24T13:01:40.134Z,16.52
2018-05-24T13:02:45.274Z,9.32
2018-05-24T13:03:50.834Z,11.73
2018-05-24T13:04:55.893Z,13.62
2018-05-24T13:06:03.281Z,12.02
2018-05-24T13:07:08.098Z,13.25
2018-05-24T13:08:13.053Z,12.13
2018-05-24T13:09:18.852Z,14.70
2018-05-24T13:10:23.772Z,9.00
2018-05-24T13:11:28.659Z,9.25
2018-05-24T13:12:33.754Z,10.90
2018-05-24T13:13:38.689Z,12.18
2018-05-24T13:14:43.862Z,12.35
2018-05-24T13:15:48.893Z,11.77
2018-05-24T13:16:53.866Z,12.80
2018-05-24T13:17:59.441Z,16.15
2018-05-24T13:19:04.472Z,12.77
2018-05-24T13:20:09.789Z,10.50
2018-05-24T13:21:14.627Z,13.68
2018-05-24T13:22:19.683Z,11.68
2018-05-24T13:23:24.947Z,10.10
2018-05-24T13:24:29.877Z,12.45
2018-05-24T13:25:35.012Z,12.55
2018-05-24T13:26:39.857Z,12.25
2018-05-24T13:27:44.611Z,10.15
2018-05-24T13:28:49.417Z,13.75
2018-05-24T13:29:54.204Z,9.43
2018-05-24T13:30:59.002Z,17.58
2018-05-24T13:32:03.827Z,10.98
2018-05-24T13:33:11.012Z,12.93
2018-05-24T13:34:15.824Z,12.75
2018-05-24T13:35:20.815Z,10.10
2018-05-24T13:36:26.659Z,12.50
2018-05-24T13:37:32.328Z,11.80
2018-05-24T13:38:37.054Z,10.55
2018-05-24T13:39:41.780Z,13.48
2018-05-24T13:40:47.484Z,22.62
2018-05-24T13:41:53.784Z,15.48
2018-05-24T13:42:58.910Z,14.30
2018-05-24T13:44:03.833Z,12.32
2018-05-24T13:45:09.000Z,12.00
2018-05-24T13:46:13.803Z,12.23
2018-05-24T13:47:18.594Z,10.70
2018-05-24T13:48:24.383Z,15.07
2018-05-24T13:49:30.821Z,14.38
2018-05-24T13:50:36.866Z,14.05
2018-05-24T13:51:41.827Z,13.70
2018-05-24T13:52:49.810Z,10.85
2018-05-24T13:53:58.688Z,17.25
2018-05-24T13:55:04.245Z,14.90
2018-05-24T13:56:09.975Z,12.45
2018-05-24T13:57:15.565Z,11.85
2018-05-24T13:58:22.118Z,14.13
2018-05-24T13:59:27.613Z,11.55
2018-05-24T14:00:32.417Z,15.73
2018-05-24T14:01:37.126Z,14.18
2018-05-24T14:02:41.874Z,16.75
2018-05-24T14:03:47.441Z,11.40
2018-05-24T14:04:54.684Z,16.52
2018-05-24T14:06:00.240Z,11.18
2018-05-24T14:07:05.732Z,13.15
2018-05-24T14:08:10.475Z,12.85
2018-05-24T14:09:15.197Z,15.93
2018-05-24T14:10:20.660Z,14.43
2018-05-24T14:11:26.288Z,18.83
2018-05-24T14:12:31.267Z,11.90
2018-05-24T14:13:36.379Z,19.48
2018-05-24T14:14:42.003Z,15.00
2018-05-24T14:15:46.712Z,12.75
2018-05-24T14:16:51.430Z,15.32
2018-05-24T14:17:56.160Z,12.93
2018-05-24T14:19:01.200Z,20.05
2018-05-24T14:20:06.690Z,13.40
2018-05-24T14:21:11.467Z,11.93
2018-05-24T14:22:16.209Z,15.65
2018-05-24T14:23:21.764Z,11.02
2018-05-24T14:24:26.975Z,12.73
2018-05-24T14:25:32.531Z,13.60
2018-05-24T14:26:37.276Z,13.77